Terminal Aerodrome Forecast
Issued by NWS Bismarck, ND

Home | Current Version | Previous Version | Graphics & Text | Print | Product List | Glossary On
Versions: 1 2 3 4 5 6 7 8 9 10 11 12 13 14 15
946
FTUS43 KBIS 060529
TAFISN
TAF
KISN 060529Z 0606/0706 21006KT P6SM SCT150 WS020/28035KT
     FM061200 24010KT P6SM BKN150 WS020/28045KT
     FM061700 25015G23KT P6SM BKN150 WS020/27050KT
     FM062000 26022G31KT P6SM SCT200 WS020/27050KT
     FM062200 27028G38KT P6SM BKN130
     FM070000 29028G38KT P6SM VCSH OVC050=

USA.gov is the U.S. government's official web portal to all federal, state and local government web resources and services.